sensor_id;sensor_type;location;lat;lon;timestamp;pressure;altitude;pressure_sealevel;temperature;humidity
45991;BME280;31721;41.740;-88.000;2023-01-31T00:01:08;100327.85;;;-13.55;34.58
45991;BME280;31721;41.740;-88.000;2023-01-31T00:03:39;100329.67;;;-13.15;35.25
45991;BME280;31721;41.740;-88.000;2023-01-31T00:06:12;100332.42;;;-13.90;34.03
45991;BME280;31721;41.740;-88.000;2023-01-31T00:08:42;100342.28;;;-13.33;35.26
45991;BME280;31721;41.740;-88.000;2023-01-31T00:11:11;100351.32;;;-13.04;35.37
45991;BME280;31721;41.740;-88.000;2023-01-31T00:13:40;100355.81;;;-12.75;35.70
45991;BME280;31721;41.740;-88.000;2023-01-31T00:16:10;100353.17;;;-12.65;35.81
45991;BME280;31721;41.740;-88.000;2023-01-31T00:18:39;100357.12;;;-13.29;33.63
45991;BME280;31721;41.740;-88.000;2023-01-31T00:21:10;100357.26;;;-13.61;34.90
45991;BME280;31721;41.740;-88.000;2023-01-31T00:23:40;100355.90;;;-13.07;35.53
45991;BME280;31721;41.740;-88.000;2023-01-31T00:26:11;100363.51;;;-13.01;35.23
45991;BME280;31721;41.740;-88.000;2023-01-31T00:28:39;100361.84;;;-13.27;34.56
45991;BME280;31721;41.740;-88.000;2023-01-31T00:31:09;100366.16;;;-13.60;35.11
45991;BME280;31721;41.740;-88.000;2023-01-31T00:33:40;100364.83;;;-13.10;35.45
45991;BME280;31721;41.740;-88.000;2023-01-31T00:36:10;100368.78;;;-12.83;35.23
45991;BME280;31721;41.740;-88.000;2023-01-31T00:38:40;100365.96;;;-13.10;34.96
45991;BME280;31721;41.740;-88.000;2023-01-31T00:41:08;100361.92;;;-13.72;33.58
45991;BME280;31721;41.740;-88.000;2023-01-31T00:43:37;100359.61;;;-13.57;35.17
45991;BME280;31721;41.740;-88.000;2023-01-31T00:46:05;100362.17;;;-13.58;34.26
45991;BME280;31721;41.740;-88.000;2023-01-31T00:48:33;100358.69;;;-13.62;34.85
45991;BME280;31721;41.740;-88.000;2023-01-31T00:51:02;100355.90;;;-13.43;35.26
45991;BME280;31721;41.740;-88.000;2023-01-31T00:53:30;100354.96;;;-14.25;34.26
45991;BME280;31721;41.740;-88.000;2023-01-31T00:56:03;100357.66;;;-13.57;35.25
45991;BME280;31721;41.740;-88.000;2023-01-31T00:58:32;100361.82;;;-13.19;35.52
45991;BME280;31721;41.740;-88.000;2023-01-31T01:01:06;100364.10;;;-13.12;35.41
45991;BME280;31721;41.740;-88.000;2023-01-31T01:03:37;100368.18;;;-13.24;35.41
45991;BME280;31721;41.740;-88.000;2023-01-31T01:06:08;100364.93;;;-13.20;35.42
45991;BME280;31721;41.740;-88.000;2023-01-31T01:08:38;100362.25;;;-13.20;35.35
45991;BME280;31721;41.740;-88.000;2023-01-31T01:11:09;100365.40;;;-13.00;35.39
45991;BME280;31721;41.740;-88.000;2023-01-31T01:13:38;100366.40;;;-13.84;34.92
45991;BME280;31721;41.740;-88.000;2023-01-31T01:16:08;100367.35;;;-13.27;35.55
45991;BME280;31721;41.740;-88.000;2023-01-31T01:18:37;100372.29;;;-13.34;35.39
45991;BME280;31721;41.740;-88.000;2023-01-31T01:21:07;100368.52;;;-13.16;35.55
45991;BME280;31721;41.740;-88.000;2023-01-31T01:23:37;100361.79;;;-13.05;35.54
45991;BME280;31721;41.740;-88.000;2023-01-31T01:26:11;100365.15;;;-13.00;35.53
45991;BME280;31721;41.740;-88.000;2023-01-31T01:28:39;100363.34;;;-12.87;35.57
45991;BME280;31721;41.740;-88.000;2023-01-31T01:31:09;100366.39;;;-13.01;34.70
45991;BME280;31721;41.740;-88.000;2023-01-31T01:33:38;100364.72;;;-13.28;35.32
45991;BME280;31721;41.740;-88.000;2023-01-31T01:36:08;100365.18;;;-12.94;35.54
45991;BME280;31721;41.740;-88.000;2023-01-31T01:38:37;100367.30;;;-13.05;35.65
45991;BME280;31721;41.740;-88.000;2023-01-31T01:41:08;100371.00;;;-12.83;35.70
45991;BME280;31721;41.740;-88.000;2023-01-31T01:43:45;100364.34;;;-12.76;35.66
45991;BME280;31721;41.740;-88.000;2023-01-31T01:46:17;100366.33;;;-12.71;35.82
45991;BME280;31721;41.740;-88.000;2023-01-31T01:48:50;100361.16;;;-12.48;35.89
45991;BME280;31721;41.740;-88.000;2023-01-31T01:51:20;100358.27;;;-12.43;35.81
45991;BME280;31721;41.740;-88.000;2023-01-31T01:53:54;100362.76;;;-12.40;35.54
45991;BME280;31721;41.740;-88.000;2023-01-31T01:56:26;100366.91;;;-12.21;35.49
45991;BME280;31721;41.740;-88.000;2023-01-31T01:59:00;100367.12;;;-12.29;35.31
45991;BME280;31721;41.740;-88.000;2023-01-31T02:01:34;100368.22;;;-12.34;35.31
45991;BME280;31721;41.740;-88.000;2023-01-31T02:04:04;100369.82;;;-12.32;35.33
45991;BME280;31721;41.740;-88.000;2023-01-31T02:06:33;100372.45;;;-12.33;35.31
45991;BME280;31721;41.740;-88.000;2023-01-31T02:09:02;100371.15;;;-12.28;35.42
45991;BME280;31721;41.740;-88.000;2023-01-31T02:11:35;100372.82;;;-12.26;35.49
45991;BME280;31721;41.740;-88.000;2023-01-31T02:14:06;100374.21;;;-12.28;35.52
45991;BME280;31721;41.740;-88.000;2023-01-31T02:16:36;100381.15;;;-12.14;35.61
45991;BME280;31721;41.740;-88.000;2023-01-31T02:19:07;100379.98;;;-12.05;35.64
45991;BME280;31721;41.740;-88.000;2023-01-31T02:22:07;100380.07;;;-12.01;35.57
45991;BME280;31721;41.740;-88.000;2023-01-31T02:28:43;100386.50;;;-12.25;35.42
45991;BME280;31721;41.740;-88.000;2023-01-31T02:31:41;100391.02;;;-12.16;35.40
45991;BME280;31721;41.740;-88.000;2023-01-31T02:34:21;100398.62;;;-12.11;35.34
45991;BME280;31721;41.740;-88.000;2023-01-31T02:37:02;100398.19;;;-12.16;35.33
45991;BME280;31721;41.740;-88.000;2023-01-31T02:39:39;100396.01;;;-12.13;35.52
45991;BME280;31721;41.740;-88.000;2023-01-31T02:42:14;100400.61;;;-12.24;35.42
45991;BME280;31721;41.740;-88.000;2023-01-31T02:44:49;100397.29;;;-12.20;35.34
45991;BME280;31721;41.740;-88.000;2023-01-31T02:47:30;100395.80;;;-12.21;35.54
45991;BME280;31721;41.740;-88.000;2023-01-31T02:50:04;100394.16;;;-12.06;35.64
45991;BME280;31721;41.740;-88.000;2023-01-31T02:52:42;100395.17;;;-12.13;35.49
45991;BME280;31721;41.740;-88.000;2023-01-31T02:55:15;100402.97;;;-12.18;35.29
45991;BME280;31721;41.740;-88.000;2023-01-31T02:57:46;100403.35;;;-12.17;35.28
45991;BME280;31721;41.740;-88.000;2023-01-31T03:00:17;100403.85;;;-12.08;35.48
45991;BME280;31721;41.740;-88.000;2023-01-31T03:02:46;100404.88;;;-12.14;35.53
45991;BME280;31721;41.740;-88.000;2023-01-31T03:05:15;100406.28;;;-12.11;35.44
45991;BME280;31721;41.740;-88.000;2023-01-31T03:07:48;100411.85;;;-12.06;35.35
45991;BME280;31721;41.740;-88.000;2023-01-31T03:10:31;100408.83;;;-11.99;35.34
45991;BME280;31721;41.740;-88.000;2023-01-31T03:13:14;100412.86;;;-12.06;35.19
45991;BME280;31721;41.740;-88.000;2023-01-31T03:15:58;100409.50;;;-12.16;35.14
45991;BME280;31721;41.740;-88.000;2023-01-31T03:18:35;100407.69;;;-12.78;34.87
45991;BME280;31721;41.740;-88.000;2023-01-31T03:21:10;100412.38;;;-12.54;35.24
45991;BME280;31721;41.740;-88.000;2023-01-31T03:23:38;100408.06;;;-12.86;35.33
45991;BME280;31721;41.740;-88.000;2023-01-31T03:26:08;100400.36;;;-12.91;35.71
45991;BME280;31721;41.740;-88.000;2023-01-31T03:28:38;100401.10;;;-12.98;35.56
45991;BME280;31721;41.740;-88.000;2023-01-31T03:31:13;100402.37;;;-13.66;35.12
45991;BME280;31721;41.740;-88.000;2023-01-31T03:33:44;100402.94;;;-13.27;35.62
45991;BME280;31721;41.740;-88.000;2023-01-31T03:36:25;100400.85;;;-13.06;35.77
45991;BME280;31721;41.740;-88.000;2023-01-31T03:39:02;100399.64;;;-13.00;35.75
45991;BME280;31721;41.740;-88.000;2023-01-31T03:41:39;100403.10;;;-13.11;35.71
45991;BME280;31721;41.740;-88.000;2023-01-31T03:44:14;100399.31;;;-12.98;35.83
45991;BME280;31721;41.740;-88.000;2023-01-31T03:46:45;100402.78;;;-13.08;35.74
45991;BME280;31721;41.740;-88.000;2023-01-31T03:49:17;100402.05;;;-13.32;35.78
45991;BME280;31721;41.740;-88.000;2023-01-31T03:51:52;100395.39;;;-13.24;35.95
45991;BME280;31721;41.740;-88.000;2023-01-31T03:54:24;100389.67;;;-13.53;35.88
45991;BME280;31721;41.740;-88.000;2023-01-31T03:56:58;100392.08;;;-13.75;35.88
45991;BME280;31721;41.740;-88.000;2023-01-31T03:59:32;100391.24;;;-13.48;36.09
45991;BME280;31721;41.740;-88.000;2023-01-31T04:02:02;100393.65;;;-13.30;36.17
45991;BME280;31721;41.740;-88.000;2023-01-31T04:04:38;100394.83;;;-13.89;36.03
45991;BME280;31721;41.740;-88.000;2023-01-31T04:07:06;100388.95;;;-13.95;36.11
45991;BME280;31721;41.740;-88.000;2023-01-31T04:09:34;100381.67;;;-13.76;36.30
45991;BME280;31721;41.740;-88.000;2023-01-31T04:12:03;100383.66;;;-13.96;36.13
45991;BME280;31721;41.740;-88.000;2023-01-31T04:14:31;100383.55;;;-13.98;36.29
45991;BME280;31721;41.740;-88.000;2023-01-31T04:16:59;100386.14;;;-14.04;36.05
45991;BME280;31721;41.740;-88.000;2023-01-31T04:19:27;100384.94;;;-13.96;36.30
45991;BME280;31721;41.740;-88.000;2023-01-31T04:21:55;100383.05;;;-13.68;36.28
45991;BME280;31721;41.740;-88.000;2023-01-31T04:24:22;100379.70;;;-13.71;36.41
45991;BME280;31721;41.740;-88.000;2023-01-31T04:26:50;100379.02;;;-13.80;35.77
45991;BME280;31721;41.740;-88.000;2023-01-31T04:29:18;100384.72;;;-13.79;36.15
45991;BME280;31721;41.740;-88.000;2023-01-31T04:31:46;100381.05;;;-13.81;36.17
45991;BME280;31721;41.740;-88.000;2023-01-31T04:34:14;100383.60;;;-13.59;36.19
45991;BME280;31721;41.740;-88.000;2023-01-31T04:36:44;100385.26;;;-13.79;35.89
45991;BME280;31721;41.740;-88.000;2023-01-31T04:39:12;100384.18;;;-13.59;36.18
45991;BME280;31721;41.740;-88.000;2023-01-31T04:41:40;100385.51;;;-14.10;36.04
45991;BME280;31721;41.740;-88.000;2023-01-31T04:44:07;100389.27;;;-13.63;36.20
45991;BME280;31721;41.740;-88.000;2023-01-31T04:46:35;100393.69;;;-13.43;36.30
45991;BME280;31721;41.740;-88.000;2023-01-31T04:49:03;100394.74;;;-13.48;36.22
45991;BME280;31721;41.740;-88.000;2023-01-31T04:51:31;100400.89;;;-13.29;36.38
45991;BME280;31721;41.740;-88.000;2023-01-31T04:53:59;100401.93;;;-13.35;36.08
45991;BME280;31721;41.740;-88.000;2023-01-31T04:56:27;100400.66;;;-13.39;36.03
45991;BME280;31721;41.740;-88.000;2023-01-31T04:58:55;100398.07;;;-13.36;36.22
45991;BME280;31721;41.740;-88.000;2023-01-31T05:01:22;100405.92;;;-13.34;36.11
45991;BME280;31721;41.740;-88.000;2023-01-31T05:03:51;100409.70;;;-13.22;36.05
45991;BME280;31721;41.740;-88.000;2023-01-31T05:06:19;100405.95;;;-13.39;36.07
45991;BME280;31721;41.740;-88.000;2023-01-31T05:08:47;100409.74;;;-13.33;36.30
45991;BME280;31721;41.740;-88.000;2023-01-31T05:11:15;100418.26;;;-13.22;36.24
45991;BME280;31721;41.740;-88.000;2023-01-31T05:13:43;100422.76;;;-13.09;36.13
45991;BME280;31721;41.740;-88.000;2023-01-31T05:16:11;100428.57;;;-13.07;36.14
45991;BME280;31721;41.740;-88.000;2023-01-31T05:18:39;100431.67;;;-13.11;36.01
45991;BME280;31721;41.740;-88.000;2023-01-31T05:21:08;100432.42;;;-13.07;35.99
45991;BME280;31721;41.740;-88.000;2023-01-31T05:23:36;100431.37;;;-13.11;35.92
45991;BME280;31721;41.740;-88.000;2023-01-31T05:26:04;100430.57;;;-12.99;36.15
45991;BME280;31721;41.740;-88.000;2023-01-31T05:28:32;100428.59;;;-13.03;36.23
45991;BME280;31721;41.740;-88.000;2023-01-31T05:31:02;100431.34;;;-13.09;36.23
45991;BME280;31721;41.740;-88.000;2023-01-31T05:33:30;100428.62;;;-13.01;36.20
45991;BME280;31721;41.740;-88.000;2023-01-31T05:35:58;100434.64;;;-12.89;36.17
45991;BME280;31721;41.740;-88.000;2023-01-31T05:38:25;100434.93;;;-13.12;36.19
45991;BME280;31721;41.740;-88.000;2023-01-31T05:40:53;100432.69;;;-13.04;36.20
45991;BME280;31721;41.740;-88.000;2023-01-31T05:43:21;100435.77;;;-13.02;36.05
45991;BME280;31721;41.740;-88.000;2023-01-31T05:45:49;100439.35;;;-13.00;35.96
45991;BME280;31721;41.740;-88.000;2023-01-31T05:48:17;100435.51;;;-13.09;35.99
45991;BME280;31721;41.740;-88.000;2023-01-31T05:50:45;100438.89;;;-13.11;35.97
45991;BME280;31721;41.740;-88.000;2023-01-31T05:53:13;100442.84;;;-13.05;36.20
45991;BME280;31721;41.740;-88.000;2023-01-31T05:55:40;100441.62;;;-13.13;36.19
45991;BME280;31721;41.740;-88.000;2023-01-31T05:58:08;100442.30;;;-12.98;36.25
45991;BME280;31721;41.740;-88.000;2023-01-31T06:00:36;100439.23;;;-13.01;36.11
45991;BME280;31721;41.740;-88.000;2023-01-31T06:03:03;100443.20;;;-13.09;36.14
45991;BME280;31721;41.740;-88.000;2023-01-31T06:05:30;100441.38;;;-13.11;36.16
45991;BME280;31721;41.740;-88.000;2023-01-31T06:07:58;100441.29;;;-13.10;35.92
45991;BME280;31721;41.740;-88.000;2023-01-31T06:10:26;100440.71;;;-13.00;35.95
45991;BME280;31721;41.740;-88.000;2023-01-31T06:12:54;100436.57;;;-12.97;36.14
45991;BME280;31721;41.740;-88.000;2023-01-31T06:15:22;100435.49;;;-13.10;36.16
45991;BME280;31721;41.740;-88.000;2023-01-31T06:17:49;100435.30;;;-13.00;36.25
45991;BME280;31721;41.740;-88.000;2023-01-31T06:20:17;100445.14;;;-12.92;36.41
45991;BME280;31721;41.740;-88.000;2023-01-31T06:22:45;100448.71;;;-12.93;36.34
45991;BME280;31721;41.740;-88.000;2023-01-31T06:25:12;100446.91;;;-12.90;36.25
45991;BME280;31721;41.740;-88.000;2023-01-31T06:27:40;100441.35;;;-12.88;36.15
45991;BME280;31721;41.740;-88.000;2023-01-31T06:30:09;100443.23;;;-12.93;36.16
45991;BME280;31721;41.740;-88.000;2023-01-31T06:32:37;100440.46;;;-12.94;36.07
45991;BME280;31721;41.740;-88.000;2023-01-31T06:35:05;100439.41;;;-12.94;36.08
45991;BME280;31721;41.740;-88.000;2023-01-31T06:37:33;100437.70;;;-12.98;36.10
45991;BME280;31721;41.740;-88.000;2023-01-31T06:40:00;100433.15;;;-13.13;36.07
45991;BME280;31721;41.740;-88.000;2023-01-31T06:42:27;100428.56;;;-13.06;36.09
45991;BME280;31721;41.740;-88.000;2023-01-31T06:44:55;100426.80;;;-13.16;36.31
45991;BME280;31721;41.740;-88.000;2023-01-31T06:47:22;100428.03;;;-13.15;36.45
45991;BME280;31721;41.740;-88.000;2023-01-31T06:49:50;100432.58;;;-13.07;36.49
45991;BME280;31721;41.740;-88.000;2023-01-31T06:52:18;100429.80;;;-13.13;36.63
45991;BME280;31721;41.740;-88.000;2023-01-31T06:54:45;100427.23;;;-13.19;36.49
45991;BME280;31721;41.740;-88.000;2023-01-31T06:57:13;100425.10;;;-13.07;36.70
45991;BME280;31721;41.740;-88.000;2023-01-31T06:59:40;100431.12;;;-13.13;36.54
45991;BME280;31721;41.740;-88.000;2023-01-31T07:02:09;100428.12;;;-13.13;36.45
45991;BME280;31721;41.740;-88.000;2023-01-31T07:04:38;100424.29;;;-13.23;36.37
45991;BME280;31721;41.740;-88.000;2023-01-31T07:07:05;100425.85;;;-13.30;36.34
45991;BME280;31721;41.740;-88.000;2023-01-31T07:09:33;100429.71;;;-13.36;36.52
45991;BME280;31721;41.740;-88.000;2023-01-31T07:12:01;100432.08;;;-13.32;36.52
45991;BME280;31721;41.740;-88.000;2023-01-31T07:14:29;100428.00;;;-13.60;36.54
45991;BME280;31721;41.740;-88.000;2023-01-31T07:16:57;100435.70;;;-13.57;36.59
45991;BME280;31721;41.740;-88.000;2023-01-31T07:19:25;100438.19;;;-13.94;36.77
45991;BME280;31721;41.740;-88.000;2023-01-31T07:21:52;100442.69;;;-13.79;36.83
45991;BME280;31721;41.740;-88.000;2023-01-31T07:24:20;100446.92;;;-13.74;36.88
45991;BME280;31721;41.740;-88.000;2023-01-31T07:26:47;100448.68;;;-13.80;37.15
45991;BME280;31721;41.740;-88.000;2023-01-31T07:29:18;100447.10;;;-13.77;37.11
45991;BME280;31721;41.740;-88.000;2023-01-31T07:31:45;100444.05;;;-13.77;36.84
45991;BME280;31721;41.740;-88.000;2023-01-31T07:34:13;100441.95;;;-13.82;36.81
45991;BME280;31721;41.740;-88.000;2023-01-31T07:36:40;100440.43;;;-13.80;36.82
45991;BME280;31721;41.740;-88.000;2023-01-31T07:42:22;100439.29;;;-14.62;37.16
45991;BME280;31721;41.740;-88.000;2023-01-31T07:44:50;100439.74;;;-14.24;37.53
45991;BME280;31721;41.740;-88.000;2023-01-31T07:47:19;100434.70;;;-14.23;37.55
45991;BME280;31721;41.740;-88.000;2023-01-31T07:49:47;100429.32;;;-14.16;37.66
45991;BME280;31721;41.740;-88.000;2023-01-31T07:52:15;100424.62;;;-14.11;37.65
45991;BME280;31721;41.740;-88.000;2023-01-31T07:54:43;100422.93;;;-14.04;37.40
45991;BME280;31721;41.740;-88.000;2023-01-31T07:57:11;100422.34;;;-14.05;37.17
45991;BME280;31721;41.740;-88.000;2023-01-31T07:59:39;100424.68;;;-14.03;37.04
45991;BME280;31721;41.740;-88.000;2023-01-31T08:02:10;100420.53;;;-14.05;37.12
45991;BME280;31721;41.740;-88.000;2023-01-31T08:04:38;100420.62;;;-14.37;37.07
45991;BME280;31721;41.740;-88.000;2023-01-31T08:07:06;100420.81;;;-14.50;37.05
45991;BME280;31721;41.740;-88.000;2023-01-31T08:09:34;100418.06;;;-14.46;37.24
45991;BME280;31721;41.740;-88.000;2023-01-31T08:12:01;100422.81;;;-14.57;37.29
45991;BME280;31721;41.740;-88.000;2023-01-31T08:14:30;100424.27;;;-14.60;37.34
45991;BME280;31721;41.740;-88.000;2023-01-31T08:16:58;100422.05;;;-14.54;37.54
45991;BME280;31721;41.740;-88.000;2023-01-31T08:19:27;100419.46;;;-14.49;37.41
45991;BME280;31721;41.740;-88.000;2023-01-31T08:21:55;100424.48;;;-14.49;37.56
45991;BME280;31721;41.740;-88.000;2023-01-31T08:24:23;100433.04;;;-14.49;37.49
45991;BME280;31721;41.740;-88.000;2023-01-31T08:26:51;100434.26;;;-14.37;37.34
45991;BME280;31721;41.740;-88.000;2023-01-31T08:29:19;100433.29;;;-14.30;37.28
45991;BME280;31721;41.740;-88.000;2023-01-31T08:31:49;100425.30;;;-14.49;37.15
45991;BME280;31721;41.740;-88.000;2023-01-31T08:34:17;100424.81;;;-14.53;37.20
45991;BME280;31721;41.740;-88.000;2023-01-31T08:36:45;100422.13;;;-14.60;37.27
45991;BME280;31721;41.740;-88.000;2023-01-31T08:39:12;100419.52;;;-14.85;37.23
45991;BME280;31721;41.740;-88.000;2023-01-31T08:41:40;100424.92;;;-15.22;37.62
45991;BME280;31721;41.740;-88.000;2023-01-31T08:44:10;100429.22;;;-14.91;37.72
45991;BME280;31721;41.740;-88.000;2023-01-31T08:46:38;100433.15;;;-14.91;37.81
45991;BME280;31721;41.740;-88.000;2023-01-31T08:49:07;100433.89;;;-14.89;38.04
45991;BME280;31721;41.740;-88.000;2023-01-31T08:51:35;100435.73;;;-14.89;37.86
45991;BME280;31721;41.740;-88.000;2023-01-31T08:54:03;100436.62;;;-14.77;37.72
45991;BME280;31721;41.740;-88.000;2023-01-31T08:56:31;100435.46;;;-15.14;37.72
45991;BME280;31721;41.740;-88.000;2023-01-31T08:58:58;100437.07;;;-14.90;37.69
45991;BME280;31721;41.740;-88.000;2023-01-31T09:01:26;100429.62;;;-14.68;37.72
45991;BME280;31721;41.740;-88.000;2023-01-31T09:03:54;100434.16;;;-14.63;37.67
45991;BME280;31721;41.740;-88.000;2023-01-31T09:06:23;100439.30;;;-14.69;37.54
45991;BME280;31721;41.740;-88.000;2023-01-31T09:08:51;100433.70;;;-14.55;37.54
45991;BME280;31721;41.740;-88.000;2023-01-31T09:11:18;100435.34;;;-14.61;37.39
45991;BME280;31721;41.740;-88.000;2023-01-31T09:13:47;100436.44;;;-14.55;37.33
45991;BME280;31721;41.740;-88.000;2023-01-31T09:16:15;100435.35;;;-14.40;37.52
45991;BME280;31721;41.740;-88.000;2023-01-31T09:18:43;100431.42;;;-14.39;37.46
45991;BME280;31721;41.740;-88.000;2023-01-31T09:21:12;100435.93;;;-14.28;37.30
45991;BME280;31721;41.740;-88.000;2023-01-31T09:23:40;100435.55;;;-14.31;37.26
45991;BME280;31721;41.740;-88.000;2023-01-31T09:26:09;100428.55;;;-14.43;37.36
45991;BME280;31721;41.740;-88.000;2023-01-31T09:28:38;100427.81;;;-14.24;37.30
45991;BME280;31721;41.740;-88.000;2023-01-31T09:31:08;100426.59;;;-14.27;37.11
45991;BME280;31721;41.740;-88.000;2023-01-31T09:33:36;100424.17;;;-14.22;37.07
45991;BME280;31721;41.740;-88.000;2023-01-31T09:36:06;100426.32;;;-14.25;37.10
45991;BME280;31721;41.740;-88.000;2023-01-31T09:38:35;100426.78;;;-14.33;37.13
45991;BME280;31721;41.740;-88.000;2023-01-31T09:41:04;100428.17;;;-14.22;37.09
45991;BME280;31721;41.740;-88.000;2023-01-31T09:43:36;100427.57;;;-14.28;37.03
45991;BME280;31721;41.740;-88.000;2023-01-31T09:46:10;100426.05;;;-14.30;36.99
45991;BME280;31721;41.740;-88.000;2023-01-31T09:48:42;100424.86;;;-14.34;37.06
45991;BME280;31721;41.740;-88.000;2023-01-31T09:51:12;100428.40;;;-14.36;37.21
45991;BME280;31721;41.740;-88.000;2023-01-31T09:53:41;100430.04;;;-14.38;37.36
45991;BME280;31721;41.740;-88.000;2023-01-31T09:56:18;100428.39;;;-14.43;37.30
45991;BME280;31721;41.740;-88.000;2023-01-31T09:58:55;100425.27;;;-14.39;37.30
45991;BME280;31721;41.740;-88.000;2023-01-31T10:01:31;100422.03;;;-14.53;37.21
45991;BME280;31721;41.740;-88.000;2023-01-31T10:04:11;100418.19;;;-14.79;37.37
45991;BME280;31721;41.740;-88.000;2023-01-31T10:06:48;100418.42;;;-14.47;37.54
45991;BME280;31721;41.740;-88.000;2023-01-31T10:09:22;100417.78;;;-14.34;37.55
45991;BME280;31721;41.740;-88.000;2023-01-31T10:11:54;100419.95;;;-14.42;37.61
45991;BME280;31721;41.740;-88.000;2023-01-31T10:14:30;100414.29;;;-14.44;37.41
45991;BME280;31721;41.740;-88.000;2023-01-31T10:17:04;100416.38;;;-14.54;37.41
45991;BME280;31721;41.740;-88.000;2023-01-31T10:19:41;100418.62;;;-14.76;37.39
45991;BME280;31721;41.740;-88.000;2023-01-31T10:22:16;100414.99;;;-14.78;37.60
45991;BME280;31721;41.740;-88.000;2023-01-31T10:24:49;100416.02;;;-14.73;37.72
45991;BME280;31721;41.740;-88.000;2023-01-31T10:27:34;100409.98;;;-14.81;37.93
45991;BME280;31721;41.740;-88.000;2023-01-31T10:30:11;100407.11;;;-14.83;37.80
45991;BME280;31721;41.740;-88.000;2023-01-31T10:32:42;100401.52;;;-14.86;37.84
45991;BME280;31721;41.740;-88.000;2023-01-31T10:35:16;100399.58;;;-14.87;37.85
45991;BME280;31721;41.740;-88.000;2023-01-31T10:37:49;100401.42;;;-14.88;37.94
45991;BME280;31721;41.740;-88.000;2023-01-31T10:40:21;100403.96;;;-14.79;38.02
45991;BME280;31721;41.740;-88.000;2023-01-31T10:42:53;100401.98;;;-14.86;37.90
45991;BME280;31721;41.740;-88.000;2023-01-31T10:45:26;100410.86;;;-14.89;37.83
45991;BME280;31721;41.740;-88.000;2023-01-31T10:47:58;100408.75;;;-14.72;37.93
45991;BME280;31721;41.740;-88.000;2023-01-31T10:50:32;100410.45;;;-14.82;37.82
45991;BME280;31721;41.740;-88.000;2023-01-31T10:53:16;100403.13;;;-15.00;37.81
45991;BME280;31721;41.740;-88.000;2023-01-31T10:55:56;100399.92;;;-15.01;37.97
45991;BME280;31721;41.740;-88.000;2023-01-31T10:58:25;100399.28;;;-15.16;38.01
45991;BME280;31721;41.740;-88.000;2023-01-31T11:00:53;100396.50;;;-15.13;38.15
45991;BME280;31721;41.740;-88.000;2023-01-31T11:03:20;100402.19;;;-15.10;38.30
45991;BME280;31721;41.740;-88.000;2023-01-31T11:05:50;100398.62;;;-15.11;38.32
45991;BME280;31721;41.740;-88.000;2023-01-31T11:08:27;100395.58;;;-15.15;38.35
45991;BME280;31721;41.740;-88.000;2023-01-31T11:10:57;100397.07;;;-15.09;38.22
45991;BME280;31721;41.740;-88.000;2023-01-31T11:13:30;100394.95;;;-15.37;38.07
45991;BME280;31721;41.740;-88.000;2023-01-31T11:15:58;100386.08;;;-15.26;38.30
45991;BME280;31721;41.740;-88.000;2023-01-31T11:18:32;100390.31;;;-15.38;38.48
45991;BME280;31721;41.740;-88.000;2023-01-31T11:21:03;100397.65;;;-15.34;38.50
45991;BME280;31721;41.740;-88.000;2023-01-31T11:23:33;100397.85;;;-15.35;38.49
45991;BME280;31721;41.740;-88.000;2023-01-31T11:26:02;100388.81;;;-15.22;38.55
45991;BME280;31721;41.740;-88.000;2023-01-31T11:28:35;100395.49;;;-15.06;38.45
45991;BME280;31721;41.740;-88.000;2023-01-31T11:31:05;100399.20;;;-15.18;38.50
45991;BME280;31721;41.740;-88.000;2023-01-31T11:33:39;100400.98;;;-14.98;38.40
45991;BME280;31721;41.740;-88.000;2023-01-31T11:36:08;100396.36;;;-15.22;38.33
45991;BME280;31721;41.740;-88.000;2023-01-31T11:38:36;100400.60;;;-15.16;38.39
45991;BME280;31721;41.740;-88.000;2023-01-31T11:41:26;100410.75;;;-15.06;38.46
45991;BME280;31721;41.740;-88.000;2023-01-31T11:44:26;100407.01;;;-15.23;38.43
45991;BME280;31721;41.740;-88.000;2023-01-31T11:46:55;100404.46;;;-14.96;38.67
45991;BME280;31721;41.740;-88.000;2023-01-31T11:49:30;100409.40;;;-14.94;38.63
45991;BME280;31721;41.740;-88.000;2023-01-31T11:52:02;100408.52;;;-15.19;38.38
45991;BME280;31721;41.740;-88.000;2023-01-31T11:54:40;100405.10;;;-15.07;38.47
45991;BME280;31721;41.740;-88.000;2023-01-31T11:57:14;100407.83;;;-15.35;38.57
45991;BME280;31721;41.740;-88.000;2023-01-31T11:59:42;100408.62;;;-15.22;38.76
45991;BME280;31721;41.740;-88.000;2023-01-31T12:02:23;100402.20;;;-15.26;38.76
45991;BME280;31721;41.740;-88.000;2023-01-31T12:04:53;100397.90;;;-15.41;38.69
45991;BME280;31721;41.740;-88.000;2023-01-31T12:07:23;100408.41;;;-15.39;38.84
45991;BME280;31721;41.740;-88.000;2023-01-31T12:09:51;100414.82;;;-15.37;38.98
45991;BME280;31721;41.740;-88.000;2023-01-31T12:12:27;100410.94;;;-15.39;39.14
45991;BME280;31721;41.740;-88.000;2023-01-31T12:14:59;100408.32;;;-15.38;38.91
45991;BME280;31721;41.740;-88.000;2023-01-31T12:17:29;100418.92;;;-15.41;38.80
45991;BME280;31721;41.740;-88.000;2023-01-31T12:20:10;100416.66;;;-15.41;38.82
45991;BME280;31721;41.740;-88.000;2023-01-31T12:22:46;100408.99;;;-15.41;38.86
45991;BME280;31721;41.740;-88.000;2023-01-31T12:25:21;100401.78;;;-15.48;39.02
45991;BME280;31721;41.740;-88.000;2023-01-31T12:28:05;100390.34;;;-15.32;38.96
45991;BME280;31721;41.740;-88.000;2023-01-31T12:30:53;100382.66;;;-15.38;38.90
45991;BME280;31721;41.740;-88.000;2023-01-31T12:33:36;100392.56;;;-15.62;38.83
45991;BME280;31721;41.740;-88.000;2023-01-31T12:36:15;100398.80;;;-15.56;39.11
45991;BME280;31721;41.740;-88.000;2023-01-31T12:38:57;100394.90;;;-15.57;39.28
45991;BME280;31721;41.740;-88.000;2023-01-31T12:41:31;100398.24;;;-15.53;39.23
45991;BME280;31721;41.740;-88.000;2023-01-31T12:44:16;100395.35;;;-15.36;39.31
45991;BME280;31721;41.740;-88.000;2023-01-31T12:47:02;100386.00;;;-15.39;39.10